Jim Hamilton L.B. Owens Airport
KCUB : now visible

Aeroporto :











RITROVATECI SU...

 
LOGIN :

Iscrizione | Disclaimer

   EN    FR    IT 

 









Sommario :    VFR   VFR Marginale   IFR   IFR Intensivo   IFR Molto Intensivo
Visibilità : 
Base nubi : 
>= 8 km
>= 3000ft
5 / 8 km
1000 / 3000 ft
1500m / 5 km
500 / 1000 ft
800 / 1500m
200 / 500 ft
< 800m
< 200 ft
Simboli :   Temporali  Nebbia  Neve Forte  Precipitazioni Forti  Vento > 20 kt






- Altitudine del aeroporto : 193 ft


KCUB - Jim Hamilton L.B. Owens

ULTIMO METAR :
  • 291218Z AUTO 00000KT 6SM BR SCT002 09/08 A3015 RMK AO2 T00890083

METARs OBSOLETI :
  • 291153Z AUTO 00000KT 5SM BR BKN002 09/08 A3014 RMK AO2 SLP207 70015 T00890083 10100 20089 51008
  • 291127Z AUTO 00000KT 1 1/4SM BR OVC002 09/08 A3014 RMK AO2 T00890083
  • 291112Z AUTO 00000KT 1SM BR OVC002 09/08 A3014 RMK AO2 T00890083
  • 291053Z AUTO 00000KT 2 1/2SM BR BKN003 09/08 A3014 RMK AO2 SLP206 T00890083
  • 291034Z AUTO 00000KT 5SM BR SCT003 09/08 A3014 RMK AO2 T00890083
  • 290953Z AUTO 00000KT 5SM BR CLR 09/08 A3013 RMK AO2 SLP200 T00890083

TAF KCUB
Valido dal 29 a 12 ore il 30 a 12 ore UTC


291138Z 2912/3012 VRB03KT 2SM BR BKN002
TEMPO 2912/2914 5SM BR BKN006
FM291400 08005KT P6SM BKN035
FM291700 09005KT P6SM VCSH BKN025
FM300000 10005KT 3SM -RA BR OVC007
FM300700 18010KT 5SM -RA BR OVC004 WS020/21045KT
FIR KZJX / America del Nord



MetMap, La meteo Aeronautica in un colpo d'occhio ! - Copyright ORBIFLY Dicembre 2007 - Disclaimer

ORBIFLY MET'MAP TEAM :

Programmazione e sviluppo : Alexandra Zaïnal
Concezione : Baudouin d'Aumeries
Aiuto per la programmazione : Marc-Olivier Méhu
Supporto tecnico e logistico : Manuel Goepfert
Aiuto per la traduzione : Arnaldo La Scala

Contatto : metmap@orbifly.com




FONTI E CREDITI :

   NOAA       Earth
Advisory